sensor_id;sensor_type;location;lat;lon;timestamp;pressure;altitude;pressure_sealevel;temperature;humidity
54666;BME280;40566;50.006;36.180;2023-09-19T00:04:21;100499.88;;;12.61;68.71
54666;BME280;40566;50.006;36.180;2023-09-19T00:09:29;100500.00;;;12.56;68.60
54666;BME280;40566;50.006;36.180;2023-09-19T00:14:30;100494.03;;;12.53;68.61
54666;BME280;40566;50.006;36.180;2023-09-19T00:19:30;100501.03;;;12.49;68.60
54666;BME280;40566;50.006;36.180;2023-09-19T00:24:31;100489.03;;;12.43;68.78
54666;BME280;40566;50.006;36.180;2023-09-19T00:29:32;100489.88;;;12.44;68.74
54666;BME280;40566;50.006;36.180;2023-09-19T00:34:33;100491.94;;;12.29;68.93
54666;BME280;40566;50.006;36.180;2023-09-19T00:39:34;100488.50;;;12.29;68.74
54666;BME280;40566;50.006;36.180;2023-09-19T00:44:35;100493.00;;;12.22;68.81
54666;BME280;40566;50.006;36.180;2023-09-19T00:49:37;100488.72;;;12.20;68.91
54666;BME280;40566;50.006;36.180;2023-09-19T00:54:38;100486.19;;;12.17;68.92
54666;BME280;40566;50.006;36.180;2023-09-19T00:59:39;100481.03;;;12.15;68.79
54666;BME280;40566;50.006;36.180;2023-09-19T01:04:40;100478.50;;;12.12;68.75
54666;BME280;40566;50.006;36.180;2023-09-19T01:09:42;100489.81;;;12.09;68.76
54666;BME280;40566;50.006;36.180;2023-09-19T01:15:11;100474.31;;;12.06;68.97
54666;BME280;40566;50.006;36.180;2023-09-19T01:30:58;100464.28;;;11.91;69.03
54666;BME280;40566;50.006;36.180;2023-09-19T01:36:00;100482.38;;;11.93;69.16
54666;BME280;40566;50.006;36.180;2023-09-19T01:41:04;100471.16;;;11.92;69.45
54666;BME280;40566;50.006;36.180;2023-09-19T01:46:24;100474.59;;;11.93;69.33
54666;BME280;40566;50.006;36.180;2023-09-19T01:51:33;100469.53;;;11.86;69.52
54666;BME280;40566;50.006;36.180;2023-09-19T01:56:57;100463.56;;;11.83;69.96
54666;BME280;40566;50.006;36.180;2023-09-19T02:02:01;100464.47;;;11.80;69.91
54666;BME280;40566;50.006;36.180;2023-09-19T02:07:03;100474.09;;;11.75;69.69
54666;BME280;40566;50.006;36.180;2023-09-19T02:12:06;100474.09;;;11.75;69.59
54666;BME280;40566;50.006;36.180;2023-09-19T02:17:06;100472.47;;;11.71;69.66
54666;BME280;40566;50.006;36.180;2023-09-19T02:22:07;100469.91;;;11.69;69.88
54666;BME280;40566;50.006;36.180;2023-09-19T02:27:10;100470.78;;;11.67;70.04
54666;BME280;40566;50.006;36.180;2023-09-19T02:32:13;100472.66;;;11.62;70.58
54666;BME280;40566;50.006;36.180;2023-09-19T02:37:13;100470.97;;;11.59;70.96
54666;BME280;40566;50.006;36.180;2023-09-19T02:42:16;100476.19;;;11.58;70.96
54666;BME280;40566;50.006;36.180;2023-09-19T02:47:17;100474.47;;;11.57;70.90
54666;BME280;40566;50.006;36.180;2023-09-19T02:52:17;100483.13;;;11.56;70.94
54666;BME280;40566;50.006;36.180;2023-09-19T02:57:18;100482.34;;;11.52;71.09
54666;BME280;40566;50.006;36.180;2023-09-19T03:08:35;100479.91;;;11.44;71.30
54666;BME280;40566;50.006;36.180;2023-09-19T03:13:37;100486.72;;;11.48;70.94
54666;BME280;40566;50.006;36.180;2023-09-19T03:18:38;100489.28;;;11.50;70.94
54666;BME280;40566;50.006;36.180;2023-09-19T03:23:40;100485.91;;;11.46;70.98
54666;BME280;40566;50.006;36.180;2023-09-19T03:28:41;100484.13;;;11.48;70.98
54666;BME280;40566;50.006;36.180;2023-09-19T03:33:42;100493.63;;;11.49;70.82
54666;BME280;40566;50.006;36.180;2023-09-19T03:38:43;100507.41;;;11.51;70.76
54666;BME280;40566;50.006;36.180;2023-09-19T03:43:45;100498.72;;;11.54;70.91
54666;BME280;40566;50.006;36.180;2023-09-19T03:48:45;100497.78;;;11.57;70.79
54666;BME280;40566;50.006;36.180;2023-09-19T03:53:46;100500.34;;;11.58;71.08
54666;BME280;40566;50.006;36.180;2023-09-19T03:58:46;100502.00;;;11.62;71.12
54666;BME280;40566;50.006;36.180;2023-09-19T04:03:47;100500.25;;;11.63;71.43
54666;BME280;40566;50.006;36.180;2023-09-19T04:08:48;100502.69;;;11.70;71.45
54666;BME280;40566;50.006;36.180;2023-09-19T04:13:49;100497.31;;;11.80;71.30
54666;BME280;40566;50.006;36.180;2023-09-19T04:18:49;100495.50;;;11.85;71.58
54666;BME280;40566;50.006;36.180;2023-09-19T04:23:50;100502.31;;;11.90;71.55
54666;BME280;40566;50.006;36.180;2023-09-19T04:28:50;100505.63;;;11.97;71.50
54666;BME280;40566;50.006;36.180;2023-09-19T04:33:51;100504.59;;;12.04;71.52
54666;BME280;40566;50.006;36.180;2023-09-19T04:38:52;100509.69;;;12.10;71.64
54666;BME280;40566;50.006;36.180;2023-09-19T04:43:54;100509.56;;;12.15;71.83
54666;BME280;40566;50.006;36.180;2023-09-19T04:48:56;100509.44;;;12.21;71.69
54666;BME280;40566;50.006;36.180;2023-09-19T04:53:56;100499.75;;;12.28;71.70
54666;BME280;40566;50.006;36.180;2023-09-19T04:59:00;100497.81;;;12.38;71.93
54666;BME280;40566;50.006;36.180;2023-09-19T05:04:00;100503.66;;;12.47;71.85
54666;BME280;40566;50.006;36.180;2023-09-19T05:09:01;100497.34;;;12.58;71.63
54666;BME280;40566;50.006;36.180;2023-09-19T05:14:05;100499.69;;;12.68;71.75
54666;BME280;40566;50.006;36.180;2023-09-19T05:19:05;100505.34;;;12.84;71.61
54666;BME280;40566;50.006;36.180;2023-09-19T05:24:06;100507.59;;;12.98;71.84
54666;BME280;40566;50.006;36.180;2023-09-19T05:29:07;100505.47;;;13.14;71.46
54666;BME280;40566;50.006;36.180;2023-09-19T05:34:09;100514.56;;;13.32;71.59
54666;BME280;40566;50.006;36.180;2023-09-19T05:39:10;100511.44;;;13.51;71.07
54666;BME280;40566;50.006;36.180;2023-09-19T05:44:11;100513.53;;;13.69;71.03
54666;BME280;40566;50.006;36.180;2023-09-19T05:49:11;100509.63;;;13.84;70.81
54666;BME280;40566;50.006;36.180;2023-09-19T05:54:12;100499.72;;;13.98;70.75
54666;BME280;40566;50.006;36.180;2023-09-19T05:59:13;100503.44;;;14.18;70.46
54666;BME280;40566;50.006;36.180;2023-09-19T06:04:16;100505.53;;;14.35;70.28
54666;BME280;40566;50.006;36.180;2023-09-19T06:09:16;100516.16;;;14.55;70.03
54666;BME280;40566;50.006;36.180;2023-09-19T06:14:17;100512.16;;;14.73;69.52
54666;BME280;40566;50.006;36.180;2023-09-19T06:19:18;100508.94;;;14.92;68.99
54666;BME280;40566;50.006;36.180;2023-09-19T06:24:19;100504.91;;;15.08;68.85
54666;BME280;40566;50.006;36.180;2023-09-19T06:29:21;100509.53;;;15.25;68.57
54666;BME280;40566;50.006;36.180;2023-09-19T06:34:23;100499.28;;;15.44;68.36
54666;BME280;40566;50.006;36.180;2023-09-19T06:39:26;100502.00;;;15.66;67.46
54666;BME280;40566;50.006;36.180;2023-09-19T06:44:28;100508.03;;;15.92;66.61
54666;BME280;40566;50.006;36.180;2023-09-19T06:49:30;100510.84;;;16.09;66.17
54666;BME280;40566;50.006;36.180;2023-09-19T06:54:31;100512.84;;;16.24;66.30
54666;BME280;40566;50.006;36.180;2023-09-19T06:59:31;100509.41;;;16.46;65.48
54666;BME280;40566;50.006;36.180;2023-09-19T07:04:32;100499.97;;;16.64;65.11
54666;BME280;40566;50.006;36.180;2023-09-19T07:09:33;100503.72;;;16.79;64.71
54666;BME280;40566;50.006;36.180;2023-09-19T07:14:34;100503.13;;;16.94;64.25
54666;BME280;40566;50.006;36.180;2023-09-19T07:19:34;100505.22;;;17.07;64.25
54666;BME280;40566;50.006;36.180;2023-09-19T07:24:35;100509.59;;;17.27;63.60
54666;BME280;40566;50.006;36.180;2023-09-19T07:29:36;100506.75;;;17.52;63.05
54666;BME280;40566;50.006;36.180;2023-09-19T07:34:38;100491.72;;;17.76;61.97
54666;BME280;40566;50.006;36.180;2023-09-19T07:39:41;100492.44;;;17.98;61.29
54666;BME280;40566;50.006;36.180;2023-09-19T07:44:41;100491.84;;;18.11;61.30
54666;BME280;40566;50.006;36.180;2023-09-19T07:49:42;100485.78;;;18.29;60.52
54666;BME280;40566;50.006;36.180;2023-09-19T07:54:43;100485.56;;;18.51;59.66
54666;BME280;40566;50.006;36.180;2023-09-19T07:59:44;100484.50;;;18.73;58.85
54666;BME280;40566;50.006;36.180;2023-09-19T08:04:45;100478.53;;;18.88;58.63
54666;BME280;40566;50.006;36.180;2023-09-19T08:09:46;100475.34;;;18.99;58.48
54666;BME280;40566;50.006;36.180;2023-09-19T08:14:49;100461.72;;;19.10;58.12
54666;BME280;40566;50.006;36.180;2023-09-19T08:19:50;100461.34;;;19.33;57.57
54666;BME280;40566;50.006;36.180;2023-09-19T08:24:53;100459.59;;;19.50;57.18
54666;BME280;40566;50.006;36.180;2023-09-19T08:29:53;100454.19;;;19.69;56.56
54666;BME280;40566;50.006;36.180;2023-09-19T08:34:54;100440.78;;;19.91;55.86
54666;BME280;40566;50.006;36.180;2023-09-19T08:39:54;100442.03;;;20.15;54.84
54666;BME280;40566;50.006;36.180;2023-09-19T08:44:55;100434.03;;;20.33;54.49
54666;BME280;40566;50.006;36.180;2023-09-19T08:50:11;100422.56;;;20.34;54.21
54666;BME280;40566;50.006;36.180;2023-09-19T08:55:15;100423.16;;;20.39;53.64
54666;BME280;40566;50.006;36.180;2023-09-19T09:00:22;100413.72;;;20.51;52.85
54666;BME280;40566;50.006;36.180;2023-09-19T09:05:28;100423.47;;;20.65;52.20
54666;BME280;40566;50.006;36.180;2023-09-19T09:10:30;100424.22;;;20.81;51.90
54666;BME280;40566;50.006;36.180;2023-09-19T09:15:31;100412.63;;;20.99;51.08
54666;BME280;40566;50.006;36.180;2023-09-19T09:20:34;100417.72;;;21.17;51.01
54666;BME280;40566;50.006;36.180;2023-09-19T09:25:52;100400.78;;;21.21;50.40
54666;BME280;40566;50.006;36.180;2023-09-19T09:30:57;100396.91;;;21.41;49.86
54666;BME280;40566;50.006;36.180;2023-09-19T09:36:36;100386.13;;;21.46;50.52
54666;BME280;40566;50.006;36.180;2023-09-19T09:41:37;100388.44;;;21.65;49.69
54666;BME280;40566;50.006;36.180;2023-09-19T09:46:42;100378.19;;;21.74;48.84
54666;BME280;40566;50.006;36.180;2023-09-19T09:52:03;100375.41;;;21.76;48.34
54666;BME280;40566;50.006;36.180;2023-09-19T09:57:09;100374.84;;;21.85;48.50
54666;BME280;40566;50.006;36.180;2023-09-19T10:02:39;100373.34;;;22.08;48.26
54666;BME280;40566;50.006;36.180;2023-09-19T10:07:42;100382.59;;;22.28;48.11
54666;BME280;40566;50.006;36.180;2023-09-19T10:12:55;100363.63;;;22.36;47.76
54666;BME280;40566;50.006;36.180;2023-09-19T10:18:06;100353.28;;;22.33;47.69
54666;BME280;40566;50.006;36.180;2023-09-19T10:23:11;100348.47;;;22.65;47.07
54666;BME280;40566;50.006;36.180;2023-09-19T10:28:21;100342.75;;;23.23;45.91
54666;BME280;40566;50.006;36.180;2023-09-19T10:33:24;100334.84;;;23.71;45.38
54666;BME280;40566;50.006;36.180;2023-09-19T10:38:28;100338.81;;;24.71;43.07
54666;BME280;40566;50.006;36.180;2023-09-19T10:43:31;100334.28;;;24.03;44.21
54666;BME280;40566;50.006;36.180;2023-09-19T10:48:37;100323.84;;;23.53;45.28
54666;BME280;40566;50.006;36.180;2023-09-19T10:53:58;100318.47;;;23.42;45.26
54666;BME280;40566;50.006;36.180;2023-09-19T11:04:40;100304.88;;;28.20;36.69
54666;BME280;40566;50.006;36.180;2023-09-19T11:09:49;100294.50;;;30.71;32.67
54666;BME280;40566;50.006;36.180;2023-09-19T11:14:53;100303.63;;;29.54;34.18
54666;BME280;40566;50.006;36.180;2023-09-19T11:30:48;100279.09;;;26.21;39.35
54666;BME280;40566;50.006;36.180;2023-09-19T11:36:05;100270.44;;;25.65;40.69
54666;BME280;40566;50.006;36.180;2023-09-19T11:51:52;100262.97;;;28.79;35.45
54666;BME280;40566;50.006;36.180;2023-09-19T11:56:52;100261.38;;;30.90;31.89
54666;BME280;40566;50.006;36.180;2023-09-19T12:02:04;100252.66;;;31.47;30.49
54666;BME280;40566;50.006;36.180;2023-09-19T12:07:09;100258.88;;;28.57;35.18
54666;BME280;40566;50.006;36.180;2023-09-19T12:12:23;100248.38;;;26.18;39.02
54666;BME280;40566;50.006;36.180;2023-09-19T12:17:39;100251.94;;;25.22;40.09
54666;BME280;40566;50.006;36.180;2023-09-19T12:22:42;100253.19;;;24.61;40.95
54666;BME280;40566;50.006;36.180;2023-09-19T12:27:47;100257.72;;;24.25;41.47
54666;BME280;40566;50.006;36.180;2023-09-19T12:32:48;100256.59;;;24.05;41.69
54666;BME280;40566;50.006;36.180;2023-09-19T12:37:53;100236.72;;;23.88;42.26
54666;BME280;40566;50.006;36.180;2023-09-19T12:42:55;100234.81;;;23.66;42.10
54666;BME280;40566;50.006;36.180;2023-09-19T12:48:24;100227.09;;;23.52;42.31
54666;BME280;40566;50.006;36.180;2023-09-19T12:53:36;100217.97;;;23.32;42.75
54666;BME280;40566;50.006;36.180;2023-09-19T13:04:20;100219.00;;;23.18;42.71
54666;BME280;40566;50.006;36.180;2023-09-19T13:09:29;100219.22;;;23.15;43.12
54666;BME280;40566;50.006;36.180;2023-09-19T13:14:35;100216.59;;;23.15;43.05
54666;BME280;40566;50.006;36.180;2023-09-19T13:24:54;100214.84;;;23.03;43.18
54666;BME280;40566;50.006;36.180;2023-09-19T13:29:55;100213.56;;;22.95;43.42
54666;BME280;40566;50.006;36.180;2023-09-19T13:34:59;100199.56;;;22.82;43.86
54666;BME280;40566;50.006;36.180;2023-09-19T13:39:59;100205.53;;;22.73;44.01
54666;BME280;40566;50.006;36.180;2023-09-19T13:45:00;100199.63;;;22.56;43.81
54666;BME280;40566;50.006;36.180;2023-09-19T13:50:02;100191.09;;;22.53;44.12
54666;BME280;40566;50.006;36.180;2023-09-19T13:55:04;100200.84;;;22.40;44.04
54666;BME280;40566;50.006;36.180;2023-09-19T14:00:07;100188.19;;;22.32;44.37
54666;BME280;40566;50.006;36.180;2023-09-19T14:05:10;100185.22;;;22.24;44.54
54666;BME280;40566;50.006;36.180;2023-09-19T14:10:15;100177.31;;;22.11;44.64
54666;BME280;40566;50.006;36.180;2023-09-19T14:15:15;100173.63;;;22.01;45.17
54666;BME280;40566;50.006;36.180;2023-09-19T14:20:16;100168.22;;;21.89;45.55
54666;BME280;40566;50.006;36.180;2023-09-19T14:25:17;100175.09;;;21.79;45.66
54666;BME280;40566;50.006;36.180;2023-09-19T14:30:17;100171.47;;;21.67;46.12
54666;BME280;40566;50.006;36.180;2023-09-19T14:35:20;100165.16;;;21.57;46.76
54666;BME280;40566;50.006;36.180;2023-09-19T14:40:21;100166.72;;;21.47;46.83
54666;BME280;40566;50.006;36.180;2023-09-19T14:45:22;100158.56;;;21.37;47.38
54666;BME280;40566;50.006;36.180;2023-09-19T14:50:25;100166.41;;;21.24;47.53
54666;BME280;40566;50.006;36.180;2023-09-19T14:55:27;100160.25;;;21.11;48.10
54666;BME280;40566;50.006;36.180;2023-09-19T15:00:30;100133.31;;;20.80;48.68
54666;BME280;40566;50.006;36.180;2023-09-19T15:05:31;100159.03;;;20.75;49.63
54666;BME280;40566;50.006;36.180;2023-09-19T15:10:32;100158.31;;;20.58;50.11
54666;BME280;40566;50.006;36.180;2023-09-19T15:15:32;100158.34;;;20.44;50.78
54666;BME280;40566;50.006;36.180;2023-09-19T15:20:33;100159.28;;;20.29;51.05
54666;BME280;40566;50.006;36.180;2023-09-19T15:25:34;100156.75;;;20.13;51.53
54666;BME280;40566;50.006;36.180;2023-09-19T15:30:38;100150.47;;;20.01;51.78
54666;BME280;40566;50.006;36.180;2023-09-19T15:35:39;100160.38;;;19.81;52.08
54666;BME280;40566;50.006;36.180;2023-09-19T15:40:46;100145.41;;;19.68;52.52
54666;BME280;40566;50.006;36.180;2023-09-19T15:45:49;100153.34;;;19.52;52.76
54666;BME280;40566;50.006;36.180;2023-09-19T15:50:49;100159.56;;;19.35;53.22
54666;BME280;40566;50.006;36.180;2023-09-19T15:55:51;100165.53;;;19.22;53.44
54666;BME280;40566;50.006;36.180;2023-09-19T16:00:52;100169.69;;;19.11;54.30
54666;BME280;40566;50.006;36.180;2023-09-19T16:05:53;100167.84;;;18.97;54.12
54666;BME280;40566;50.006;36.180;2023-09-19T16:10:53;100174.53;;;18.87;54.40
54666;BME280;40566;50.006;36.180;2023-09-19T16:15:54;100174.88;;;18.80;53.79
54666;BME280;40566;50.006;36.180;2023-09-19T16:21:01;100164.59;;;18.76;53.80
54666;BME280;40566;50.006;36.180;2023-09-19T16:26:06;100176.34;;;18.69;53.76
54666;BME280;40566;50.006;36.180;2023-09-19T16:31:08;100174.06;;;18.62;53.73
54666;BME280;40566;50.006;36.180;2023-09-19T16:36:10;100179.66;;;18.56;54.09
54666;BME280;40566;50.006;36.180;2023-09-19T16:41:11;100180.06;;;18.49;54.27
54666;BME280;40566;50.006;36.180;2023-09-19T16:46:13;100175.38;;;18.38;54.89
54666;BME280;40566;50.006;36.180;2023-09-19T16:51:18;100181.13;;;18.29;55.23
54666;BME280;40566;50.006;36.180;2023-09-19T16:56:20;100178.03;;;18.20;56.30
54666;BME280;40566;50.006;36.180;2023-09-19T17:01:20;100188.16;;;18.11;56.99
54666;BME280;40566;50.006;36.180;2023-09-19T17:06:24;100193.88;;;18.01;57.67
54666;BME280;40566;50.006;36.180;2023-09-19T17:11:25;100195.09;;;17.94;57.59
54666;BME280;40566;50.006;36.180;2023-09-19T17:16:26;100198.31;;;17.82;57.92
54666;BME280;40566;50.006;36.180;2023-09-19T17:21:33;100200.41;;;17.75;58.45
54666;BME280;40566;50.006;36.180;2023-09-19T17:26:34;100221.03;;;17.64;58.80
54666;BME280;40566;50.006;36.180;2023-09-19T17:31:36;100214.69;;;17.51;59.18
54666;BME280;40566;50.006;36.180;2023-09-19T17:36:40;100211.69;;;17.41;59.80
54666;BME280;40566;50.006;36.180;2023-09-19T17:41:41;100225.28;;;17.30;60.00
54666;BME280;40566;50.006;36.180;2023-09-19T17:46:41;100223.88;;;17.23;60.13
54666;BME280;40566;50.006;36.180;2023-09-19T17:51:42;100218.16;;;17.15;61.06
54666;BME280;40566;50.006;36.180;2023-09-19T17:56:42;100227.22;;;17.08;61.37
54666;BME280;40566;50.006;36.180;2023-09-19T18:01:44;100220.44;;;17.03;61.57
54666;BME280;40566;50.006;36.180;2023-09-19T18:06:45;100224.41;;;16.93;61.45
54666;BME280;40566;50.006;36.180;2023-09-19T18:11:49;100231.69;;;16.87;61.52
54666;BME280;40566;50.006;36.180;2023-09-19T18:16:49;100231.03;;;16.81;62.00
54666;BME280;40566;50.006;36.180;2023-09-19T18:21:53;100226.91;;;16.76;62.09
54666;BME280;40566;50.006;36.180;2023-09-19T18:26:53;100224.69;;;16.66;61.98
54666;BME280;40566;50.006;36.180;2023-09-19T18:31:54;100228.53;;;16.59;62.09
54666;BME280;40566;50.006;36.180;2023-09-19T18:36:54;100231.53;;;16.50;62.47
54666;BME280;40566;50.006;36.180;2023-09-19T18:41:58;100230.13;;;16.43;62.81
54666;BME280;40566;50.006;36.180;2023-09-19T18:47:00;100228.69;;;16.36;63.10
54666;BME280;40566;50.006;36.180;2023-09-19T18:52:04;100230.59;;;16.32;63.35
54666;BME280;40566;50.006;36.180;2023-09-19T18:57:08;100236.03;;;16.28;63.52
54666;BME280;40566;50.006;36.180;2023-09-19T19:02:11;100232.75;;;16.22;63.66
54666;BME280;40566;50.006;36.180;2023-09-19T19:07:12;100238.19;;;16.18;63.48
54666;BME280;40566;50.006;36.180;2023-09-19T19:12:17;100239.28;;;16.12;63.74
54666;BME280;40566;50.006;36.180;2023-09-19T19:17:17;100242.94;;;16.08;63.92
54666;BME280;40566;50.006;36.180;2023-09-19T19:22:18;100238.06;;;16.00;64.36
54666;BME280;40566;50.006;36.180;2023-09-19T19:27:21;100239.16;;;15.95;64.40
54666;BME280;40566;50.006;36.180;2023-09-19T19:32:21;100246.25;;;15.91;64.49
54666;BME280;40566;50.006;36.180;2023-09-19T19:37:26;100250.84;;;15.86;64.69
54666;BME280;40566;50.006;36.180;2023-09-19T19:42:31;100235.31;;;15.83;64.64
54666;BME280;40566;50.006;36.180;2023-09-19T19:47:32;100252.19;;;15.74;64.65
54666;BME280;40566;50.006;36.180;2023-09-19T19:52:32;100250.66;;;15.69;64.92
54666;BME280;40566;50.006;36.180;2023-09-19T19:57:33;100247.31;;;15.65;65.25
54666;BME280;40566;50.006;36.180;2023-09-19T20:02:35;100253.50;;;15.62;65.20
54666;BME280;40566;50.006;36.180;2023-09-19T20:07:35;100245.84;;;15.58;65.27
54666;BME280;40566;50.006;36.180;2023-09-19T20:12:37;100249.50;;;15.54;65.79
54666;BME280;40566;50.006;36.180;2023-09-19T20:17:37;100255.69;;;15.51;65.70
54666;BME280;40566;50.006;36.180;2023-09-19T20:22:38;100254.97;;;15.47;65.98
54666;BME280;40566;50.006;36.180;2023-09-19T20:27:39;100250.78;;;15.43;66.13
54666;BME280;40566;50.006;36.180;2023-09-19T20:32:40;100254.41;;;15.39;66.30
54666;BME280;40566;50.006;36.180;2023-09-19T20:37:44;100257.13;;;15.36;66.32
54666;BME280;40566;50.006;36.180;2023-09-19T20:42:50;100249.44;;;15.33;66.32
54666;BME280;40566;50.006;36.180;2023-09-19T20:47:50;100253.88;;;15.31;66.41
54666;BME280;40566;50.006;36.180;2023-09-19T20:52:54;100253.13;;;15.27;66.18
54666;BME280;40566;50.006;36.180;2023-09-19T20:57:55;100250.59;;;15.26;66.02
54666;BME280;40566;50.006;36.180;2023-09-19T21:02:56;100242.84;;;15.24;65.75
54666;BME280;40566;50.006;36.180;2023-09-19T21:07:56;100247.34;;;15.21;65.71
54666;BME280;40566;50.006;36.180;2023-09-19T21:12:57;100245.66;;;15.18;65.78
54666;BME280;40566;50.006;36.180;2023-09-19T21:17:58;100230.22;;;15.14;66.13
54666;BME280;40566;50.006;36.180;2023-09-19T21:22:59;100240.66;;;15.14;66.29
54666;BME280;40566;50.006;36.180;2023-09-19T21:28:00;100244.28;;;15.10;65.95
54666;BME280;40566;50.006;36.180;2023-09-19T21:33:01;100240.88;;;15.07;66.24
54666;BME280;40566;50.006;36.180;2023-09-19T21:38:02;100245.38;;;15.04;66.37
54666;BME280;40566;50.006;36.180;2023-09-19T21:43:03;100241.19;;;15.00;66.37
54666;BME280;40566;50.006;36.180;2023-09-19T21:48:06;100231.88;;;14.93;66.74
54666;BME280;40566;50.006;36.180;2023-09-19T21:53:08;100234.56;;;14.91;66.74
54666;BME280;40566;50.006;36.180;2023-09-19T21:58:09;100227.78;;;14.87;66.97
54666;BME280;40566;50.006;36.180;2023-09-19T22:03:09;100233.09;;;14.84;67.22
54666;BME280;40566;50.006;36.180;2023-09-19T22:08:10;100229.69;;;14.82;67.35
54666;BME280;40566;50.006;36.180;2023-09-19T22:13:12;100223.75;;;14.78;67.42
54666;BME280;40566;50.006;36.180;2023-09-19T22:18:15;100225.63;;;14.75;67.41
54666;BME280;40566;50.006;36.180;2023-09-19T22:23:20;100231.84;;;14.71;67.33
54666;BME280;40566;50.006;36.180;2023-09-19T22:28:36;100235.53;;;14.65;67.48
54666;BME280;40566;50.006;36.180;2023-09-19T22:33:41;100233.88;;;14.62;66.91
54666;BME280;40566;50.006;36.180;2023-09-19T22:38:42;100240.03;;;14.61;66.45
54666;BME280;40566;50.006;36.180;2023-09-19T22:43:43;100236.72;;;14.56;66.15
54666;BME280;40566;50.006;36.180;2023-09-19T22:48:48;100238.50;;;14.54;66.37
54666;BME280;40566;50.006;36.180;2023-09-19T22:53:51;100244.78;;;14.48;66.81
54666;BME280;40566;50.006;36.180;2023-09-19T22:58:57;100245.00;;;14.42;66.34
54666;BME280;40566;50.006;36.180;2023-09-19T23:03:58;100246.84;;;14.39;66.27
54666;BME280;40566;50.006;36.180;2023-09-19T23:09:15;100240.84;;;14.37;66.37
54666;BME280;40566;50.006;36.180;2023-09-19T23:14:22;100238.44;;;14.32;66.60
54666;BME280;40566;50.006;36.180;2023-09-19T23:19:29;100250.75;;;14.27;67.05
54666;BME280;40566;50.006;36.180;2023-09-19T23:24:31;100248.09;;;14.28;67.08
54666;BME280;40566;50.006;36.180;2023-09-19T23:29:35;100250.88;;;14.24;67.20
54666;BME280;40566;50.006;36.180;2023-09-19T23:34:39;100250.91;;;14.22;67.26
54666;BME280;40566;50.006;36.180;2023-09-19T23:39:39;100244.88;;;14.22;67.35
54666;BME280;40566;50.006;36.180;2023-09-19T23:44:44;100253.50;;;14.22;67.67
54666;BME280;40566;50.006;36.180;2023-09-19T23:49:48;100248.25;;;14.24;68.01
54666;BME280;40566;50.006;36.180;2023-09-19T23:54:49;100253.50;;;14.22;67.91
54666;BME280;40566;50.006;36.180;2023-09-19T23:59:51;100252.72;;;14.20;68.09
